createdAt,value
2018-09-04T00:04:34.316Z,45.60
2018-09-04T00:09:37.741Z,45.70
2018-09-04T00:14:40.938Z,45.60
2018-09-04T00:19:44.109Z,45.70
2018-09-04T00:24:47.418Z,45.60
2018-09-04T00:29:50.684Z,45.60
2018-09-04T00:34:53.907Z,45.70
2018-09-04T00:39:57.113Z,45.70
2018-09-04T00:45:00.356Z,45.70
2018-09-04T00:50:03.843Z,45.70
2018-09-04T00:55:07.068Z,45.70
2018-09-04T01:00:10.378Z,45.80
2018-09-04T01:05:13.601Z,46.40
2018-09-04T01:10:16.896Z,45.80
2018-09-04T01:15:20.358Z,45.90
2018-09-04T01:20:23.590Z,45.90
2018-09-04T01:25:26.875Z,45.90
2018-09-04T01:30:30.292Z,45.80
2018-09-04T01:35:33.499Z,45.80
2018-09-04T01:40:36.738Z,45.90
2018-09-04T01:45:40.233Z,45.90
2018-09-04T01:50:44.207Z,46.00
2018-09-04T01:55:47.450Z,46.00
2018-09-04T02:00:50.661Z,46.00
2018-09-04T02:05:53.998Z,46.00
2018-09-04T02:10:57.294Z,46.00
2018-09-04T02:16:00.616Z,46.70
2018-09-04T02:21:03.833Z,46.00
2018-09-04T02:26:07.217Z,46.00
2018-09-04T02:31:10.480Z,46.00
2018-09-04T02:36:13.660Z,46.10
2018-09-04T02:41:17.749Z,46.00
2018-09-04T02:46:21.349Z,46.10
2018-09-04T02:51:24.676Z,46.10
2018-09-04T02:56:27.896Z,46.00
2018-09-04T03:01:31.228Z,46.50
2018-09-04T03:06:35.082Z,45.90
2018-09-04T03:11:38.544Z,45.90
2018-09-04T03:16:42.000Z,45.90
2018-09-04T03:21:45.420Z,45.90
2018-09-04T03:26:48.623Z,45.90
2018-09-04T03:31:51.974Z,46.00
2018-09-04T03:36:55.614Z,46.00
2018-09-04T03:41:59.167Z,46.00
2018-09-04T03:47:02.351Z,46.00
2018-09-04T03:52:06.063Z,46.00
2018-09-04T03:57:09.313Z,46.00
2018-09-04T04:02:12.504Z,46.00
2018-09-04T04:07:16.450Z,46.00
2018-09-04T04:12:19.733Z,46.00
2018-09-04T04:17:22.979Z,45.90
2018-09-04T04:22:26.169Z,46.00
2018-09-04T04:27:29.624Z,46.00
2018-09-04T04:32:32.817Z,45.90
2018-09-04T04:37:37.373Z,46.00
2018-09-04T04:42:40.634Z,45.90
2018-09-04T04:47:48.233Z,45.90
2018-09-04T04:52:51.695Z,46.00
2018-09-04T04:57:54.893Z,45.90
2018-09-04T05:02:58.486Z,46.00
2018-09-04T05:08:02.000Z,46.00
2018-09-04T05:13:05.510Z,46.10
2018-09-04T05:18:08.782Z,46.20
2018-09-04T05:23:11.970Z,46.20
2018-09-04T05:28:15.379Z,46.40
2018-09-04T05:33:23.414Z,46.50
2018-09-04T05:38:26.717Z,46.50
2018-09-04T05:43:38.192Z,46.40
2018-09-04T05:48:41.713Z,46.50
2018-09-04T05:53:45.047Z,46.50
2018-09-04T05:58:48.497Z,46.50
2018-09-04T06:03:52.219Z,46.40
2018-09-04T06:08:55.909Z,46.40
2018-09-04T06:13:59.392Z,46.40
2018-09-04T06:19:03.657Z,46.40
2018-09-04T06:24:07.159Z,46.40
2018-09-04T06:29:10.895Z,46.30
2018-09-04T06:34:14.641Z,46.40
2018-09-04T06:39:18.180Z,46.40
2018-09-04T06:44:21.611Z,46.30
2018-09-04T06:49:25.353Z,46.40
2018-09-04T06:54:29.455Z,46.30
2018-09-04T06:59:32.868Z,46.40
2018-09-04T07:04:36.231Z,46.30
2018-09-04T07:09:39.661Z,46.20
2018-09-04T07:14:43.188Z,46.10
2018-09-04T07:19:47.029Z,46.20
2018-09-04T07:24:51.587Z,46.20
2018-09-04T07:29:55.118Z,46.10
2018-09-04T07:34:58.468Z,46.20
2018-09-04T07:40:01.999Z,46.10
2018-09-04T07:45:06.690Z,46.10
2018-09-04T07:50:10.549Z,45.70
2018-09-04T07:55:14.135Z,45.60
2018-09-04T08:00:17.392Z,45.50
2018-09-04T08:05:20.880Z,45.50
2018-09-04T08:10:24.106Z,45.40
2018-09-04T08:15:27.407Z,45.20
2018-09-04T08:20:30.936Z,45.50
2018-09-04T08:25:34.232Z,45.60
2018-09-04T08:30:37.571Z,45.60
2018-09-04T08:35:40.826Z,45.50
2018-09-04T08:40:44.291Z,45.50
2018-09-04T08:45:47.628Z,45.50
2018-09-04T08:50:51.993Z,45.90
2018-09-04T08:55:55.418Z,45.10
2018-09-04T09:00:58.801Z,45.20
2018-09-04T09:06:02.577Z,45.30
2018-09-04T09:11:06.165Z,45.40
2018-09-04T09:16:09.414Z,45.40
2018-09-04T09:21:13.340Z,45.40
2018-09-04T09:26:16.879Z,45.40
2018-09-04T09:31:20.301Z,45.30
2018-09-04T09:36:24.072Z,45.00
2018-09-04T09:41:27.776Z,45.00
2018-09-04T09:46:31.033Z,45.00
2018-09-04T09:51:34.293Z,45.10
2018-09-04T09:56:37.600Z,45.30
2018-09-04T10:01:46.383Z,45.30
2018-09-04T10:06:49.620Z,45.30
2018-09-04T10:11:53.139Z,45.40
2018-09-04T10:16:56.436Z,45.10
2018-09-04T10:21:59.752Z,45.00
2018-09-04T10:27:03.139Z,45.10
2018-09-04T10:32:06.404Z,45.10
2018-09-04T10:37:09.667Z,44.90
2018-09-04T10:42:12.932Z,45.00
2018-09-04T10:47:16.306Z,44.90
2018-09-04T10:52:19.632Z,44.90
2018-09-04T10:57:22.891Z,44.90
2018-09-04T11:02:26.203Z,44.80
2018-09-04T11:07:29.390Z,44.70
2018-09-04T11:12:32.857Z,44.60
2018-09-04T11:17:36.598Z,44.50
2018-09-04T11:22:39.971Z,44.50
2018-09-04T11:27:43.309Z,44.40
2018-09-04T11:32:46.588Z,44.40
2018-09-04T11:37:49.928Z,44.40
2018-09-04T11:42:53.183Z,44.20
2018-09-04T11:47:58.912Z,44.40
2018-09-04T11:53:02.549Z,44.30
2018-09-04T11:58:06.411Z,44.30
2018-09-04T12:03:11.228Z,44.40
2018-09-04T12:08:14.836Z,44.40
2018-09-04T12:13:23.653Z,44.50
2018-09-04T12:18:27.702Z,44.40
2018-09-04T12:23:31.207Z,44.20
2018-09-04T12:28:34.609Z,43.90
2018-09-04T12:33:38.033Z,43.70
2018-09-04T12:38:43.504Z,43.70
2018-09-04T12:43:47.178Z,43.60
2018-09-04T12:48:51.564Z,43.30
2018-09-04T12:53:54.940Z,43.30
2018-09-04T12:58:58.267Z,43.30
2018-09-04T13:04:01.531Z,43.20
2018-09-04T13:09:06.313Z,43.20
2018-09-04T13:14:09.660Z,43.10
2018-09-04T13:19:13.007Z,43.20
2018-09-04T13:24:16.223Z,43.20
2018-09-04T13:29:19.655Z,43.10
2018-09-04T13:34:23.787Z,43.20
2018-09-04T13:39:27.241Z,43.10
2018-09-04T13:44:30.687Z,43.00
2018-09-04T13:49:34.148Z,42.90
2018-09-04T13:54:37.623Z,42.90
2018-09-04T13:59:41.035Z,42.90
2018-09-04T14:04:45.035Z,43.00
2018-09-04T14:09:48.681Z,42.90
2018-09-04T14:14:52.298Z,42.90
2018-09-04T14:19:55.812Z,42.90
2018-09-04T14:24:59.489Z,42.80
2018-09-04T14:30:17.041Z,42.80
2018-09-04T14:35:07.415Z,42.80
2018-09-04T14:40:10.846Z,43.10
2018-09-04T14:45:14.153Z,42.80
2018-09-04T14:50:17.593Z,42.80
2018-09-04T14:55:20.914Z,42.80
2018-09-04T15:00:24.320Z,42.80
2018-09-04T15:05:27.810Z,42.80
2018-09-04T15:10:31.202Z,42.70
2018-09-04T15:15:34.684Z,42.70
2018-09-04T15:20:38.047Z,42.80
2018-09-04T15:25:41.446Z,42.80
2018-09-04T15:30:44.843Z,42.60
2018-09-04T15:35:48.222Z,42.60
2018-09-04T15:40:51.680Z,43.20
2018-09-04T15:45:55.072Z,43.10
2018-09-04T15:50:58.502Z,42.50
2018-09-04T15:56:01.915Z,42.50
2018-09-04T16:01:05.401Z,42.40
2018-09-04T16:06:08.818Z,42.40
2018-09-04T16:11:12.271Z,42.30
2018-09-04T16:16:15.869Z,42.20
2018-09-04T16:21:19.486Z,40.00
2018-09-04T16:26:23.114Z,38.90
2018-09-04T16:31:26.659Z,39.50
2018-09-04T16:36:29.963Z,38.80
2018-09-04T16:41:33.334Z,38.20
2018-09-04T16:46:36.599Z,37.90
2018-09-04T16:51:40.493Z,37.70
2018-09-04T16:56:44.578Z,37.50
2018-09-04T17:01:48.555Z,37.90
2018-09-04T17:07:17.572Z,38.00
2018-09-04T17:12:21.480Z,38.10
2018-09-04T17:17:25.220Z,38.20
2018-09-04T17:22:28.648Z,38.20
2018-09-04T17:27:32.552Z,38.30
2018-09-04T17:32:35.945Z,38.40
2018-09-04T17:37:40.095Z,38.50
2018-09-04T17:42:43.550Z,38.40
2018-09-04T17:47:47.390Z,39.30
2018-09-04T17:52:51.001Z,38.80
2018-09-04T17:57:54.816Z,39.00
2018-09-04T18:02:59.392Z,39.40
2018-09-04T18:08:03.082Z,40.10
2018-09-04T18:13:06.899Z,40.50
2018-09-04T18:18:10.898Z,41.30
2018-09-04T18:23:14.343Z,41.90
2018-09-04T18:28:17.670Z,42.30
2018-09-04T18:33:20.900Z,42.10
2018-09-04T18:38:24.184Z,41.80
2018-09-04T18:43:27.661Z,42.20
2018-09-04T18:48:30.964Z,42.80
2018-09-04T18:53:35.102Z,42.90
2018-09-04T18:58:38.538Z,43.10
2018-09-04T19:03:42.136Z,43.10
2018-09-04T19:08:46.710Z,43.00
2018-09-04T19:13:50.089Z,42.70
2018-09-04T19:18:53.453Z,42.70
2018-09-04T19:23:56.983Z,42.60
2018-09-04T19:29:00.663Z,42.50
2018-09-04T19:34:04.646Z,42.60
2018-09-04T19:39:08.781Z,42.60
2018-09-04T19:44:12.341Z,42.70
2018-09-04T19:49:16.916Z,42.70
2018-09-04T19:54:20.297Z,42.70
2018-09-04T19:59:23.967Z,42.80
2018-09-04T20:04:27.590Z,42.80
2018-09-04T20:09:31.468Z,42.80
2018-09-04T20:14:35.270Z,42.90
2018-09-04T20:19:39.134Z,42.90
2018-09-04T20:24:42.663Z,42.90
2018-09-04T20:29:45.976Z,42.90
2018-09-04T20:34:49.351Z,42.90
2018-09-04T20:39:52.802Z,43.10
2018-09-04T20:44:56.523Z,43.20
2018-09-04T20:49:59.986Z,43.80
2018-09-04T20:55:03.448Z,43.10
2018-09-04T21:00:21.858Z,43.20
2018-09-04T21:05:36.861Z,43.40
2018-09-04T21:10:40.812Z,43.50
2018-09-04T21:15:44.392Z,43.50
2018-09-04T21:20:48.327Z,43.50
2018-09-04T21:25:51.802Z,43.60
2018-09-04T21:30:55.664Z,43.60
2018-09-04T21:35:58.932Z,43.60
2018-09-04T21:41:02.198Z,43.70
2018-09-04T21:46:05.678Z,43.80
2018-09-04T21:51:08.949Z,44.00
2018-09-04T21:56:12.284Z,44.00
2018-09-04T22:01:16.554Z,43.90
2018-09-04T22:06:20.792Z,44.00
2018-09-04T22:11:24.134Z,44.00
2018-09-04T22:16:28.082Z,44.10
2018-09-04T22:21:31.380Z,44.10
2018-09-04T22:26:34.806Z,44.20
2018-09-04T22:31:38.318Z,44.20
2018-09-04T22:36:41.981Z,44.10
2018-09-04T22:41:45.439Z,44.40
2018-09-04T22:46:49.102Z,44.30
2018-09-04T22:51:56.813Z,44.40
2018-09-04T22:57:00.249Z,44.70
2018-09-04T23:02:04.795Z,44.70
2018-09-04T23:07:09.473Z,44.90
2018-09-04T23:12:13.662Z,45.00
2018-09-04T23:17:17.424Z,45.20
2018-09-04T23:22:21.684Z,44.90
2018-09-04T23:27:25.169Z,45.20
2018-09-04T23:32:28.638Z,45.10
2018-09-04T23:37:32.068Z,45.40
2018-09-04T23:42:35.645Z,45.40
2018-09-04T23:47:38.919Z,45.30
2018-09-04T23:52:44.697Z,48.90
2018-09-04T23:57:48.118Z,53.20
